createdAt,value
2019-05-11T00:02:17.731Z,1.07
2019-05-11T00:04:47.367Z,1.47
2019-05-11T00:07:17.093Z,2.10
2019-05-11T00:09:57.571Z,0.67
2019-05-11T00:12:18.970Z,0.70
2019-05-11T00:14:48.615Z,1.60
2019-05-11T00:17:18.342Z,0.70
2019-05-11T00:19:47.999Z,1.27
2019-05-11T00:22:17.636Z,0.93
2019-05-11T00:24:47.290Z,1.00
2019-05-11T00:27:16.977Z,0.60
2019-05-11T00:29:46.632Z,0.73
2019-05-11T00:32:16.272Z,1.07
2019-05-11T00:34:45.917Z,0.50
2019-05-11T00:37:15.635Z,0.50
2019-05-11T00:39:45.300Z,0.60
2019-05-11T00:42:14.933Z,0.80
2019-05-11T00:44:47.244Z,0.80
2019-05-11T00:47:16.001Z,0.60
2019-05-11T00:49:46.085Z,1.53
2019-05-11T00:52:15.727Z,1.20
2019-05-11T00:54:45.406Z,0.97
2019-05-11T00:57:15.147Z,1.43
2019-05-11T00:59:44.819Z,0.60
2019-05-11T01:02:14.479Z,1.03
2019-05-11T01:04:44.141Z,1.20
2019-05-11T01:07:13.871Z,1.47
2019-05-11T01:09:44.172Z,1.13
2019-05-11T01:12:13.840Z,0.87
2019-05-11T01:14:43.495Z,0.77
2019-05-11T01:17:13.235Z,0.67
2019-05-11T01:19:42.867Z,1.13
2019-05-11T01:22:12.518Z,0.70
2019-05-11T01:24:42.162Z,0.77
2019-05-11T01:27:11.857Z,0.50
2019-05-11T01:29:41.504Z,1.00
2019-05-11T01:32:11.188Z,1.43
2019-05-11T01:34:40.834Z,0.70
2019-05-11T01:37:10.505Z,2.13
2019-05-11T01:39:40.136Z,0.50
2019-05-11T01:42:09.844Z,0.97
2019-05-11T01:44:39.500Z,0.60
2019-05-11T01:47:09.234Z,0.90
2019-05-11T01:49:38.938Z,0.90
2019-05-11T01:52:08.585Z,0.83
2019-05-11T01:54:38.236Z,0.77
2019-05-11T01:57:08.017Z,1.07
2019-05-11T01:59:37.682Z,1.53
2019-05-11T02:02:07.404Z,0.83
2019-05-11T02:04:37.075Z,0.80
2019-05-11T02:07:06.846Z,0.80
2019-05-11T02:09:36.496Z,0.97
2019-05-11T02:12:06.253Z,0.70
2019-05-11T02:14:35.987Z,0.60
2019-05-11T02:17:05.659Z,0.90
2019-05-11T02:19:35.377Z,0.60
2019-05-11T02:22:24.010Z,0.80
2019-05-11T02:24:54.248Z,0.80
2019-05-11T02:27:23.946Z,0.87
2019-05-11T02:29:53.588Z,1.67
2019-05-11T02:32:23.240Z,0.40
2019-05-11T02:34:52.895Z,0.53
2019-05-11T02:37:22.591Z,0.60
2019-05-11T02:39:52.225Z,0.77
2019-05-11T02:42:21.880Z,0.70
2019-05-11T02:44:51.505Z,1.00
2019-05-11T02:47:21.236Z,0.73
2019-05-11T02:49:50.904Z,0.80
2019-05-11T02:52:20.530Z,1.00
2019-05-11T02:54:50.191Z,1.20
2019-05-11T02:57:19.886Z,0.70
2019-05-11T02:59:49.584Z,1.07
2019-05-11T03:02:19.247Z,1.00
2019-05-11T03:04:48.895Z,0.50
2019-05-11T03:07:18.595Z,1.00
2019-05-11T03:09:48.226Z,0.63
2019-05-11T03:12:17.879Z,0.83
2019-05-11T03:14:47.515Z,0.90
2019-05-11T03:17:21.010Z,1.23
2019-05-11T03:19:50.668Z,0.53
2019-05-11T03:22:39.741Z,1.10
2019-05-11T03:25:09.443Z,0.70
2019-05-11T03:27:39.130Z,0.60
2019-05-11T03:30:08.798Z,0.80
2019-05-11T03:32:38.606Z,1.43
2019-05-11T03:35:08.273Z,1.30
2019-05-11T03:37:37.961Z,1.00
2019-05-11T03:40:07.659Z,0.60
2019-05-11T03:42:37.331Z,1.30
2019-05-11T03:45:07.224Z,0.87
2019-05-11T03:47:36.894Z,0.97
2019-05-11T03:50:06.695Z,0.60
2019-05-11T03:52:36.358Z,0.77
2019-05-11T03:55:06.306Z,0.60
2019-05-11T03:57:36.069Z,0.50
2019-05-11T04:00:05.897Z,0.60
2019-05-11T04:02:54.679Z,0.80
2019-05-11T04:05:24.361Z,0.67
2019-05-11T04:07:54.039Z,1.17
2019-05-11T04:10:25.360Z,0.50
2019-05-11T04:12:55.004Z,0.90
2019-05-11T04:15:24.666Z,0.80
2019-05-11T04:17:54.438Z,1.03
2019-05-11T04:20:24.108Z,1.70
2019-05-11T04:22:53.781Z,2.10
2019-05-11T04:25:23.477Z,1.00
2019-05-11T04:28:12.240Z,5.97
2019-05-11T04:30:41.987Z,1.50
2019-05-11T04:33:11.764Z,1.60
2019-05-11T04:35:41.462Z,2.10
2019-05-11T04:38:11.710Z,3.23
2019-05-11T04:40:42.205Z,4.67
2019-05-11T04:43:12.592Z,2.30
2019-05-11T04:45:42.715Z,3.87
2019-05-11T04:48:12.737Z,3.10
2019-05-11T04:50:42.775Z,1.33
2019-05-11T04:53:13.381Z,4.00
2019-05-11T04:55:43.120Z,0.80
2019-05-11T04:58:12.834Z,1.37
2019-05-11T05:00:42.953Z,2.53
2019-05-11T05:03:12.627Z,2.03
2019-05-11T05:05:42.285Z,2.57
2019-05-11T05:08:12.009Z,1.13
2019-05-11T05:10:41.813Z,3.07
2019-05-11T05:13:11.525Z,2.23
2019-05-11T05:15:41.203Z,2.30
2019-05-11T05:18:10.988Z,1.63
2019-05-11T05:20:43.698Z,3.77
2019-05-11T05:23:12.072Z,2.60
2019-05-11T05:25:41.779Z,1.53
2019-05-11T05:28:11.725Z,1.27
2019-05-11T05:30:42.351Z,5.03
2019-05-11T05:33:13.012Z,1.80
2019-05-11T05:35:45.705Z,3.07
2019-05-11T05:38:15.459Z,1.20
2019-05-11T05:40:45.116Z,0.90
2019-05-11T05:43:26.354Z,2.37
2019-05-11T05:45:46.196Z,0.83
2019-05-11T05:48:16.029Z,5.73
2019-05-11T05:50:45.705Z,3.93
2019-05-11T05:53:15.550Z,3.27
2019-05-11T05:55:45.467Z,4.37
2019-05-11T05:58:15.207Z,3.13
2019-05-11T06:00:44.864Z,3.80
2019-05-11T06:03:14.583Z,3.90
2019-05-11T06:05:44.295Z,5.07
2019-05-11T06:08:14.046Z,4.30
2019-05-11T06:10:43.810Z,3.57
2019-05-11T06:13:13.767Z,3.03
2019-05-11T06:15:43.488Z,6.37
2019-05-11T06:18:13.293Z,14.23
2019-05-11T06:20:43.014Z,30.40
2019-05-11T06:23:12.712Z,41.90
2019-05-11T06:25:42.358Z,43.37
2019-05-11T06:28:12.143Z,41.17
2019-05-11T06:30:42.009Z,46.70
2019-05-11T06:33:11.665Z,45.77
2019-05-11T06:35:41.407Z,44.87
2019-05-11T06:38:11.203Z,41.60
2019-05-11T06:40:40.905Z,34.67
2019-05-11T06:43:10.600Z,37.93
2019-05-11T06:45:43.564Z,37.13
2019-05-11T06:48:13.302Z,37.27
2019-05-11T06:50:43.013Z,35.03
2019-05-11T06:53:12.732Z,32.93
2019-05-11T06:55:42.407Z,27.73
2019-05-11T06:58:12.235Z,34.23
2019-05-11T07:00:42.127Z,28.50
2019-05-11T07:03:12.051Z,25.57
2019-05-11T07:05:41.728Z,25.70
2019-05-11T07:08:11.460Z,26.97
2019-05-11T07:10:41.174Z,24.07
2019-05-11T07:13:10.937Z,26.87
2019-05-11T07:15:40.668Z,20.63
2019-05-11T07:18:10.672Z,26.13
2019-05-11T07:20:49.978Z,26.07
2019-05-11T07:23:12.238Z,25.53
2019-05-11T07:25:42.269Z,23.00
2019-05-11T07:28:12.100Z,23.33
2019-05-11T07:30:41.995Z,18.20
2019-05-11T07:33:11.848Z,23.60
2019-05-11T07:35:41.546Z,23.40
2019-05-11T07:38:11.433Z,14.20
2019-05-11T07:40:41.111Z,28.23
2019-05-11T07:43:10.805Z,19.00
2019-05-11T07:45:40.522Z,17.47
2019-05-11T07:48:10.232Z,18.80
2019-05-11T07:50:39.943Z,12.83
2019-05-11T07:53:09.648Z,20.23
2019-05-11T07:55:39.356Z,16.40
2019-05-11T07:58:09.179Z,14.60
2019-05-11T08:00:40.031Z,11.20
2019-05-11T08:03:10.054Z,15.10
2019-05-11T08:05:39.856Z,10.70
2019-05-11T08:08:09.652Z,14.80
2019-05-11T08:10:39.589Z,13.37
2019-05-11T08:13:09.362Z,12.13
2019-05-11T08:15:39.136Z,10.77
2019-05-11T08:18:08.949Z,12.27
2019-05-11T08:20:38.728Z,12.53
2019-05-11T08:23:09.030Z,10.30
2019-05-11T08:25:39.082Z,9.47
2019-05-11T08:28:11.741Z,8.73
2019-05-11T08:30:40.419Z,12.63
2019-05-11T08:33:10.209Z,8.50
2019-05-11T08:35:39.982Z,8.67
2019-05-11T08:38:10.691Z,8.57
2019-05-11T08:40:41.191Z,8.20
2019-05-11T08:43:11.095Z,11.53
2019-05-11T08:45:41.041Z,8.10
2019-05-11T08:48:10.817Z,10.97
2019-05-11T08:50:40.496Z,8.93
2019-05-11T08:53:10.161Z,10.13
2019-05-11T08:55:39.871Z,8.00
2019-05-11T08:58:11.999Z,11.63
2019-05-11T09:00:41.720Z,10.33
2019-05-11T09:03:11.514Z,11.97
2019-05-11T09:05:41.165Z,11.73
2019-05-11T09:08:10.889Z,10.47
2019-05-11T09:10:40.721Z,12.13
2019-05-11T09:13:10.511Z,14.57
2019-05-11T09:15:40.900Z,14.97
2019-05-11T09:18:10.811Z,11.57
2019-05-11T09:20:40.742Z,9.97
2019-05-11T09:23:10.507Z,11.83
2019-05-11T09:25:40.308Z,13.40
2019-05-11T09:28:10.144Z,10.67
2019-05-11T09:30:39.857Z,8.23
2019-05-11T09:33:09.611Z,9.83
2019-05-11T09:35:50.623Z,14.53
2019-05-11T09:38:18.593Z,10.00
2019-05-11T09:40:48.378Z,8.73
2019-05-11T09:43:18.044Z,15.13
2019-05-11T09:45:49.337Z,10.43
2019-05-11T09:48:19.351Z,13.00
2019-05-11T09:50:49.066Z,10.33
2019-05-11T09:53:18.798Z,11.43
2019-05-11T09:55:48.469Z,9.10
2019-05-11T09:58:19.676Z,7.43
2019-05-11T10:00:49.595Z,8.27
2019-05-11T10:03:19.271Z,13.57
2019-05-11T10:05:48.950Z,12.23
2019-05-11T10:08:38.213Z,14.37
2019-05-11T10:11:08.512Z,9.63
2019-05-11T10:13:47.597Z,10.67
2019-05-11T10:16:17.912Z,8.10
2019-05-11T10:18:49.180Z,6.27
2019-05-11T10:21:19.199Z,11.43
2019-05-11T10:23:49.161Z,5.62
2019-05-11T10:26:19.172Z,8.60
2019-05-11T10:28:48.959Z,6.83
2019-05-11T10:31:18.751Z,7.33
2019-05-11T10:33:49.084Z,8.50
2019-05-11T10:36:19.184Z,6.17
2019-05-11T10:38:48.980Z,4.87
2019-05-11T10:41:18.887Z,5.10
2019-05-11T10:43:49.081Z,3.63
2019-05-11T10:46:22.905Z,7.73
2019-05-11T10:48:50.490Z,4.50
2019-05-11T10:51:20.194Z,7.83
2019-05-11T10:53:52.142Z,4.30
2019-05-11T10:56:21.407Z,6.73
2019-05-11T10:58:51.436Z,6.13
2019-05-11T11:01:21.384Z,6.93
2019-05-11T11:03:51.126Z,5.20
2019-05-11T11:06:20.948Z,2.87
2019-05-11T11:08:50.762Z,5.27
2019-05-11T11:11:20.764Z,3.50
2019-05-11T11:13:50.565Z,4.03
2019-05-11T11:16:35.527Z,4.37
2019-05-11T11:18:51.750Z,4.23
2019-05-11T11:21:22.963Z,7.23
2019-05-11T11:23:53.074Z,7.13
2019-05-11T11:26:22.849Z,6.07
2019-05-11T11:28:52.631Z,3.53
2019-05-11T11:31:22.456Z,6.33
2019-05-11T11:33:55.533Z,2.90
2019-05-11T11:36:24.347Z,5.23
2019-05-11T11:38:54.251Z,2.63
2019-05-11T11:41:24.077Z,3.33
2019-05-11T11:43:53.892Z,2.93
2019-05-11T11:46:23.662Z,4.90
2019-05-11T11:48:53.476Z,3.93
2019-05-11T11:51:23.325Z,3.03
2019-05-11T11:53:53.720Z,4.67
2019-05-11T11:56:23.471Z,2.93
2019-05-11T11:58:54.884Z,4.13
2019-05-11T12:01:24.790Z,5.83
2019-05-11T12:03:54.632Z,2.47
2019-05-11T12:06:24.278Z,1.20
2019-05-11T12:08:54.025Z,3.40
2019-05-11T12:11:23.923Z,1.80
2019-05-11T12:13:53.721Z,2.40
2019-05-11T12:16:34.933Z,2.63
2019-05-11T12:19:05.406Z,2.83
2019-05-11T12:21:35.139Z,3.13
2019-05-11T12:24:04.860Z,2.83
2019-05-11T12:26:34.714Z,3.70
2019-05-11T12:29:04.807Z,3.03
2019-05-11T12:31:34.541Z,3.73
2019-05-11T12:34:04.470Z,2.90
2019-05-11T12:36:34.298Z,2.03
2019-05-11T12:39:05.105Z,1.70
2019-05-11T12:41:34.803Z,1.80
2019-05-11T12:44:04.500Z,2.90
2019-05-11T12:46:36.705Z,2.00
2019-05-11T12:49:07.824Z,3.37
2019-05-11T12:51:38.313Z,1.97
2019-05-11T12:54:08.707Z,2.90
2019-05-11T12:56:38.529Z,2.67
2019-05-11T12:59:08.386Z,2.73
2019-05-11T13:01:38.379Z,4.00
2019-05-11T13:04:08.935Z,2.10
2019-05-11T13:06:38.870Z,2.33
2019-05-11T13:09:08.996Z,2.10
2019-05-11T13:11:38.838Z,2.43
2019-05-11T13:14:27.854Z,2.53
2019-05-11T13:16:59.011Z,2.27
2019-05-11T13:19:29.013Z,3.00
2019-05-11T13:21:59.076Z,2.30
2019-05-11T13:24:28.964Z,1.60
2019-05-11T13:26:59.744Z,2.23
2019-05-11T13:29:29.742Z,1.80
2019-05-11T13:32:04.633Z,1.93
2019-05-11T13:34:34.570Z,1.87
2019-05-11T13:37:04.546Z,1.60
2019-05-11T13:39:34.504Z,2.00
2019-05-11T13:42:04.252Z,2.87
2019-05-11T13:44:34.040Z,3.10
2019-05-11T13:47:03.857Z,1.63
2019-05-11T13:49:33.561Z,3.30
2019-05-11T13:52:03.296Z,1.73
2019-05-11T13:54:33.019Z,2.67
2019-05-11T13:57:02.907Z,5.77
2019-05-11T13:59:32.795Z,8.27
2019-05-11T14:02:02.655Z,10.33
2019-05-11T14:04:32.634Z,7.80
2019-05-11T14:07:02.379Z,7.33
2019-05-11T14:09:32.227Z,4.37
2019-05-11T14:12:02.153Z,4.47
2019-05-11T14:14:31.973Z,4.50
2019-05-11T14:17:01.832Z,3.97
2019-05-11T14:19:31.603Z,3.83
2019-05-11T14:22:01.307Z,1.40
2019-05-11T14:24:31.120Z,5.37
2019-05-11T14:27:01.060Z,4.23
2019-05-11T14:29:30.821Z,2.27
2019-05-11T14:32:00.661Z,2.10
2019-05-11T14:34:30.457Z,3.40
2019-05-11T14:37:00.393Z,2.60
2019-05-11T14:39:30.300Z,6.20
2019-05-11T14:42:00.126Z,1.57
2019-05-11T14:44:29.864Z,2.87
2019-05-11T14:46:59.697Z,2.40
2019-05-11T14:49:29.423Z,2.43
2019-05-11T14:51:59.254Z,4.70
2019-05-11T14:54:29.084Z,1.80
2019-05-11T14:56:58.842Z,2.13
2019-05-11T14:59:28.795Z,2.57
2019-05-11T15:01:58.692Z,2.30
2019-05-11T15:04:28.834Z,2.63
2019-05-11T15:06:58.776Z,0.50
2019-05-11T15:09:28.728Z,2.10
2019-05-11T15:11:58.486Z,1.07
2019-05-11T15:14:28.974Z,1.20
2019-05-11T15:16:58.872Z,3.60
2019-05-11T15:19:28.570Z,2.87
2019-05-11T15:21:58.327Z,3.20
2019-05-11T15:24:48.664Z,2.37
2019-05-11T15:27:18.593Z,2.77
2019-05-11T15:29:48.384Z,2.97
2019-05-11T15:32:18.173Z,1.13
2019-05-11T15:34:48.731Z,1.00
2019-05-11T15:37:18.727Z,1.50
2019-05-11T15:39:48.599Z,3.53
2019-05-11T15:42:19.967Z,3.83
2019-05-11T15:44:49.916Z,0.90
2019-05-11T15:47:19.681Z,3.67
2019-05-11T15:49:49.507Z,3.73
2019-05-11T15:52:19.230Z,0.97
2019-05-11T15:54:49.157Z,1.07
2019-05-11T15:57:19.159Z,1.27
2019-05-11T15:59:48.848Z,2.93
2019-05-11T16:02:18.564Z,2.73
2019-05-11T16:04:49.327Z,2.50
2019-05-11T16:07:19.387Z,1.67
2019-05-11T16:09:49.091Z,1.03
2019-05-11T16:12:18.810Z,1.47
2019-05-11T16:14:48.634Z,4.20
2019-05-11T16:17:18.463Z,1.60
2019-05-11T16:19:49.074Z,1.30
2019-05-11T16:22:21.201Z,1.67
2019-05-11T16:24:50.422Z,2.77
2019-05-11T16:27:20.515Z,0.47
2019-05-11T16:29:50.287Z,1.60
2019-05-11T16:32:19.987Z,3.33
2019-05-11T16:34:49.674Z,1.37
2019-05-11T16:37:19.442Z,2.77
2019-05-11T16:39:49.500Z,1.90
2019-05-11T16:42:19.452Z,0.70
2019-05-11T16:44:49.257Z,3.50
2019-05-11T16:47:19.037Z,2.53
2019-05-11T16:49:48.708Z,2.23
2019-05-11T16:52:18.441Z,2.17
2019-05-11T16:54:48.099Z,0.83
2019-05-11T16:57:17.895Z,2.30
2019-05-11T16:59:48.341Z,1.23
2019-05-11T17:02:18.778Z,1.20
2019-05-11T17:04:48.519Z,2.67
2019-05-11T17:07:18.649Z,2.13
2019-05-11T17:09:48.373Z,0.30
2019-05-11T17:12:18.129Z,3.37
2019-05-11T17:15:02.890Z,0.50
2019-05-11T17:17:32.717Z,1.03
2019-05-11T17:20:02.468Z,0.70
2019-05-11T17:22:53.807Z,1.07
2019-05-11T17:25:22.724Z,3.40
2019-05-11T17:27:52.670Z,1.67
2019-05-11T17:30:23.234Z,2.53
2019-05-11T17:32:52.946Z,1.10
2019-05-11T17:35:42.115Z,3.23
2019-05-11T17:38:11.924Z,1.20
2019-05-11T17:40:41.598Z,2.37
2019-05-11T17:43:11.275Z,1.80
2019-05-11T17:45:40.974Z,1.60
2019-05-11T17:48:10.771Z,1.33
2019-05-11T17:50:40.767Z,0.40
2019-05-11T17:53:10.531Z,1.70
2019-05-11T17:55:40.272Z,2.97
2019-05-11T17:58:10.081Z,2.63
2019-05-11T18:00:40.554Z,1.00
2019-05-11T18:03:11.442Z,0.80
2019-05-11T18:05:41.390Z,3.40
2019-05-11T18:08:11.099Z,1.97
2019-05-11T18:10:40.806Z,0.60
2019-05-11T18:13:10.528Z,1.37
2019-05-11T18:15:40.295Z,2.23
2019-05-11T18:18:10.052Z,3.43
2019-05-11T18:20:39.752Z,1.57
2019-05-11T18:23:09.453Z,0.50
2019-05-11T18:25:39.185Z,1.67
2019-05-11T18:28:09.030Z,3.10
2019-05-11T18:30:38.966Z,3.53
2019-05-11T18:33:08.696Z,4.53
2019-05-11T18:35:38.571Z,5.10
2019-05-11T18:38:08.721Z,8.77
2019-05-11T18:40:39.928Z,4.60
2019-05-11T18:43:09.729Z,5.03
2019-05-11T18:45:39.549Z,8.73
2019-05-11T18:48:09.475Z,4.43
2019-05-11T18:50:39.281Z,3.67
2019-05-11T18:53:09.414Z,3.93
2019-05-11T18:55:39.630Z,5.83
2019-05-11T18:58:09.435Z,4.57
2019-05-11T19:00:39.148Z,3.00
2019-05-11T19:03:09.119Z,2.90
2019-05-11T19:05:38.990Z,3.47
2019-05-11T19:08:08.892Z,2.10
2019-05-11T19:10:38.670Z,5.17
2019-05-11T19:13:08.641Z,5.37
2019-05-11T19:15:41.677Z,2.77
2019-05-11T19:18:12.452Z,1.67
2019-05-11T19:20:45.956Z,1.13
2019-05-11T19:23:15.633Z,3.37
2019-05-11T19:25:47.964Z,4.03
2019-05-11T19:28:18.715Z,1.53
2019-05-11T19:30:53.327Z,2.10
2019-05-11T19:33:23.724Z,5.47
2019-05-11T19:35:54.278Z,4.00
2019-05-11T19:38:27.849Z,2.00
2019-05-11T19:41:00.094Z,3.73
2019-05-11T19:43:30.508Z,3.80
2019-05-11T19:46:00.158Z,2.93
2019-05-11T19:48:29.897Z,3.23
2019-05-11T19:51:06.935Z,2.13
2019-05-11T19:53:31.415Z,2.97
2019-05-11T19:56:01.245Z,2.23
2019-05-11T19:58:30.994Z,3.83
2019-05-11T20:01:03.622Z,1.17
2019-05-11T20:03:33.297Z,1.23
2019-05-11T20:06:14.090Z,2.97
2019-05-11T20:08:43.951Z,4.07
2019-05-11T20:11:13.693Z,7.47
2019-05-11T20:13:48.280Z,3.63
2019-05-11T20:16:21.274Z,2.60
2019-05-11T20:18:51.200Z,5.77
2019-05-11T20:21:31.068Z,8.03
2019-05-11T20:24:00.758Z,5.13
2019-05-11T20:26:30.487Z,4.00
2019-05-11T20:29:00.509Z,6.20
2019-05-11T20:31:30.553Z,6.30
2019-05-11T20:34:00.374Z,5.13
2019-05-11T20:36:31.298Z,5.70
2019-05-11T20:39:01.431Z,6.30
2019-05-11T20:41:31.499Z,5.27
2019-05-11T20:44:01.272Z,4.53
2019-05-11T20:46:31.243Z,3.93
2019-05-11T20:49:01.714Z,5.83
2019-05-11T20:51:36.492Z,3.10
2019-05-11T20:54:04.302Z,3.53
2019-05-11T20:56:33.951Z,2.57
2019-05-11T20:59:03.642Z,4.50
2019-05-11T21:01:33.305Z,6.13
2019-05-11T21:04:03.115Z,4.13
2019-05-11T21:06:32.757Z,2.70
2019-05-11T21:09:02.468Z,4.90
2019-05-11T21:11:32.556Z,4.13
2019-05-11T21:14:02.198Z,1.80
2019-05-11T21:16:33.693Z,2.80
2019-05-11T21:19:04.380Z,3.53
2019-05-11T21:21:46.381Z,4.33
2019-05-11T21:24:05.474Z,1.97
2019-05-11T21:26:35.115Z,5.80
2019-05-11T21:29:04.932Z,4.87
2019-05-11T21:31:34.892Z,4.67
2019-05-11T21:34:04.549Z,8.27
2019-05-11T21:36:34.204Z,2.53
2019-05-11T21:39:07.440Z,5.67
2019-05-11T21:41:38.636Z,4.40
2019-05-11T21:44:08.457Z,3.63
2019-05-11T21:46:38.854Z,6.97
2019-05-11T21:49:08.680Z,3.67
2019-05-11T21:51:38.357Z,2.57
2019-05-11T21:54:08.101Z,2.53
2019-05-11T21:56:40.787Z,3.23
2019-05-11T21:59:09.129Z,2.20
2019-05-11T22:01:38.894Z,2.67
2019-05-11T22:04:11.330Z,2.27
2019-05-11T22:06:39.859Z,0.83
2019-05-11T22:09:09.740Z,1.53
2019-05-11T22:11:39.462Z,0.70
2019-05-11T22:14:09.128Z,0.60
2019-05-11T22:16:38.986Z,0.93
2019-05-11T22:19:09.134Z,2.47
2019-05-11T22:21:38.801Z,3.73
2019-05-11T22:24:08.734Z,0.63
2019-05-11T22:26:38.412Z,2.30
2019-05-11T22:29:08.069Z,2.07
2019-05-11T22:31:38.618Z,1.37
2019-05-11T22:34:09.057Z,3.27
2019-05-11T22:36:38.755Z,0.77
2019-05-11T22:39:10.097Z,1.33
2019-05-11T22:41:39.856Z,1.40
2019-05-11T22:44:11.067Z,0.47
2019-05-11T22:46:40.853Z,1.70
2019-05-11T22:49:10.536Z,0.90
2019-05-11T22:51:40.198Z,2.03
2019-05-11T22:54:11.061Z,1.97
2019-05-11T22:56:41.022Z,0.40
2019-05-11T22:59:10.661Z,1.77
2019-05-11T23:01:40.315Z,1.13
2019-05-11T23:04:09.976Z,0.70
2019-05-11T23:06:40.592Z,1.30
2019-05-11T23:09:10.394Z,1.10
2019-05-11T23:11:41.092Z,1.97
2019-05-11T23:14:10.730Z,2.27
2019-05-11T23:16:40.827Z,1.27
2019-05-11T23:19:10.494Z,1.97
2019-05-11T23:21:40.135Z,0.97
2019-05-11T23:24:09.846Z,1.17
2019-05-11T23:26:39.490Z,3.43
2019-05-11T23:29:09.129Z,0.50
2019-05-11T23:31:38.769Z,0.50
2019-05-11T23:34:08.479Z,1.07
2019-05-11T23:36:38.412Z,1.50
2019-05-11T23:39:09.282Z,2.63
2019-05-11T23:41:39.064Z,2.10
2019-05-11T23:44:08.968Z,0.60
2019-05-11T23:46:38.805Z,0.40
2019-05-11T23:49:08.939Z,1.17
2019-05-11T23:51:38.843Z,1.60
2019-05-11T23:54:08.650Z,1.33
2019-05-11T23:56:38.799Z,2.63
2019-05-11T23:59:08.581Z,0.57
